sensor_id;sensor_type;location;lat;lon;timestamp;pressure;altitude;pressure_sealevel;temperature;humidity
7026;BME280;3554;42.132;24.786;2022-08-01T00:02:28;99003.03;;;24.44;100.00
7026;BME280;3554;42.132;24.786;2022-08-01T00:04:56;99003.34;;;24.41;100.00
7026;BME280;3554;42.132;24.786;2022-08-01T00:07:23;99012.06;;;24.43;100.00
7026;BME280;3554;42.132;24.786;2022-08-01T00:09:50;99007.56;;;24.44;100.00
7026;BME280;3554;42.132;24.786;2022-08-01T00:12:16;99004.38;;;24.40;100.00
7026;BME280;3554;42.132;24.786;2022-08-01T00:14:43;99004.00;;;24.35;100.00
7026;BME280;3554;42.132;24.786;2022-08-01T00:17:10;99009.81;;;24.56;100.00
7026;BME280;3554;42.132;24.786;2022-08-01T00:19:38;99007.66;;;24.60;100.00
7026;BME280;3554;42.132;24.786;2022-08-01T00:22:05;99002.41;;;24.50;100.00
7026;BME280;3554;42.132;24.786;2022-08-01T00:24:32;99007.91;;;24.49;100.00
7026;BME280;3554;42.132;24.786;2022-08-01T00:26:59;98996.34;;;24.40;100.00
7026;BME280;3554;42.132;24.786;2022-08-01T00:29:26;98994.44;;;24.32;100.00
7026;BME280;3554;42.132;24.786;2022-08-01T00:31:53;98989.97;;;24.41;100.00
7026;BME280;3554;42.132;24.786;2022-08-01T00:34:19;99007.75;;;24.24;100.00
7026;BME280;3554;42.132;24.786;2022-08-01T00:36:48;99007.63;;;24.26;100.00
7026;BME280;3554;42.132;24.786;2022-08-01T00:39:15;98987.03;;;24.26;100.00
7026;BME280;3554;42.132;24.786;2022-08-01T00:41:41;99001.78;;;24.30;100.00
7026;BME280;3554;42.132;24.786;2022-08-01T00:44:08;98999.78;;;24.32;100.00
7026;BME280;3554;42.132;24.786;2022-08-01T00:46:35;99012.13;;;24.25;100.00
7026;BME280;3554;42.132;24.786;2022-08-01T00:49:02;99009.44;;;24.25;100.00
7026;BME280;3554;42.132;24.786;2022-08-01T00:51:30;99013.59;;;24.20;100.00
7026;BME280;3554;42.132;24.786;2022-08-01T00:53:59;99015.56;;;24.18;100.00
7026;BME280;3554;42.132;24.786;2022-08-01T00:56:27;99009.69;;;24.14;100.00
7026;BME280;3554;42.132;24.786;2022-08-01T00:58:55;98941.31;;;23.69;100.00
7026;BME280;3554;42.132;24.786;2022-08-01T01:01:22;99009.13;;;24.03;100.00
7026;BME280;3554;42.132;24.786;2022-08-01T01:03:50;99004.19;;;23.98;100.00
7026;BME280;3554;42.132;24.786;2022-08-01T01:06:28;98974.75;;;23.73;100.00
7026;BME280;3554;42.132;24.786;2022-08-01T01:09:15;99006.13;;;23.88;100.00
7026;BME280;3554;42.132;24.786;2022-08-01T01:11:48;99006.19;;;23.79;100.00
7026;BME280;3554;42.132;24.786;2022-08-01T01:14:27;98999.84;;;23.62;100.00
7026;BME280;3554;42.132;24.786;2022-08-01T01:16:58;98998.94;;;23.54;100.00
7026;BME280;3554;42.132;24.786;2022-08-01T01:19:30;99013.22;;;23.45;100.00
7026;BME280;3554;42.132;24.786;2022-08-01T01:22:21;98964.66;;;23.14;100.00
7026;BME280;3554;42.132;24.786;2022-08-01T01:25:00;99004.97;;;23.38;100.00
7026;BME280;3554;42.132;24.786;2022-08-01T01:27:39;99000.66;;;23.37;100.00
7026;BME280;3554;42.132;24.786;2022-08-01T01:30:10;99006.72;;;23.29;100.00
7026;BME280;3554;42.132;24.786;2022-08-01T01:32:39;99004.78;;;23.22;100.00
7026;BME280;3554;42.132;24.786;2022-08-01T01:35:20;99005.88;;;23.29;100.00
7026;BME280;3554;42.132;24.786;2022-08-01T01:37:51;99012.06;;;23.29;100.00
7026;BME280;3554;42.132;24.786;2022-08-01T01:40:20;99018.28;;;23.20;100.00
7026;BME280;3554;42.132;24.786;2022-08-01T01:42:49;99008.28;;;23.22;100.00
7026;BME280;3554;42.132;24.786;2022-08-01T01:45:18;99010.81;;;23.24;100.00
7026;BME280;3554;42.132;24.786;2022-08-01T01:47:45;99016.00;;;23.25;100.00
7026;BME280;3554;42.132;24.786;2022-08-01T01:50:13;99020.81;;;23.22;100.00
7026;BME280;3554;42.132;24.786;2022-08-01T01:52:42;99016.59;;;23.19;100.00
7026;BME280;3554;42.132;24.786;2022-08-01T01:55:12;99012.56;;;23.15;100.00
7026;BME280;3554;42.132;24.786;2022-08-01T01:57:41;99014.69;;;23.12;100.00
7026;BME280;3554;42.132;24.786;2022-08-01T02:00:11;99006.72;;;23.02;100.00
7026;BME280;3554;42.132;24.786;2022-08-01T02:02:41;99012.91;;;23.03;100.00
7026;BME280;3554;42.132;24.786;2022-08-01T02:05:10;98978.06;;;22.77;100.00
7026;BME280;3554;42.132;24.786;2022-08-01T02:07:39;99015.28;;;23.06;100.00
7026;BME280;3554;42.132;24.786;2022-08-01T02:10:07;98979.53;;;22.89;100.00
7026;BME280;3554;42.132;24.786;2022-08-01T02:12:36;99017.38;;;23.12;100.00
7026;BME280;3554;42.132;24.786;2022-08-01T02:15:06;99011.75;;;23.05;100.00
7026;BME280;3554;42.132;24.786;2022-08-01T02:17:37;98964.47;;;22.71;100.00
7026;BME280;3554;42.132;24.786;2022-08-01T02:20:08;99022.97;;;23.09;100.00
7026;BME280;3554;42.132;24.786;2022-08-01T02:22:40;99009.50;;;23.10;100.00
7026;BME280;3554;42.132;24.786;2022-08-01T02:25:12;99011.31;;;23.10;100.00
7026;BME280;3554;42.132;24.786;2022-08-01T02:27:43;99017.09;;;23.05;100.00
7026;BME280;3554;42.132;24.786;2022-08-01T02:30:13;99010.81;;;22.97;100.00
7026;BME280;3554;42.132;24.786;2022-08-01T02:32:45;98998.63;;;22.94;100.00
7026;BME280;3554;42.132;24.786;2022-08-01T02:35:24;99007.72;;;23.01;100.00
7026;BME280;3554;42.132;24.786;2022-08-01T02:37:56;99011.38;;;23.00;100.00
7026;BME280;3554;42.132;24.786;2022-08-01T02:40:24;99016.13;;;23.06;100.00
7026;BME280;3554;42.132;24.786;2022-08-01T02:42:54;99021.97;;;22.92;100.00
7026;BME280;3554;42.132;24.786;2022-08-01T02:45:25;98995.75;;;22.78;100.00
7026;BME280;3554;42.132;24.786;2022-08-01T02:47:55;98981.50;;;22.51;100.00
7026;BME280;3554;42.132;24.786;2022-08-01T02:50:26;98989.53;;;22.60;100.00
7026;BME280;3554;42.132;24.786;2022-08-01T02:52:55;99003.00;;;22.59;100.00
7026;BME280;3554;42.132;24.786;2022-08-01T02:55:24;98988.97;;;22.57;100.00
7026;BME280;3554;42.132;24.786;2022-08-01T02:57:52;99006.06;;;22.64;100.00
7026;BME280;3554;42.132;24.786;2022-08-01T03:00:21;99002.88;;;22.60;100.00
7026;BME280;3554;42.132;24.786;2022-08-01T03:02:49;99005.94;;;22.56;100.00
7026;BME280;3554;42.132;24.786;2022-08-01T03:05:19;99008.19;;;22.51;100.00
7026;BME280;3554;42.132;24.786;2022-08-01T03:07:48;98954.84;;;22.14;100.00
7026;BME280;3554;42.132;24.786;2022-08-01T03:10:16;99000.75;;;22.54;100.00
7026;BME280;3554;42.132;24.786;2022-08-01T03:12:44;99004.13;;;22.56;100.00
7026;BME280;3554;42.132;24.786;2022-08-01T03:15:13;99000.88;;;22.53;100.00
7026;BME280;3554;42.132;24.786;2022-08-01T03:17:41;98976.66;;;22.27;100.00
7026;BME280;3554;42.132;24.786;2022-08-01T03:20:12;98996.41;;;22.44;100.00
7026;BME280;3554;42.132;24.786;2022-08-01T03:22:40;98988.88;;;22.39;100.00
7026;BME280;3554;42.132;24.786;2022-08-01T03:25:12;98985.06;;;22.42;100.00
7026;BME280;3554;42.132;24.786;2022-08-01T03:27:42;99001.03;;;22.51;100.00
7026;BME280;3554;42.132;24.786;2022-08-01T03:30:11;99002.31;;;22.47;100.00
7026;BME280;3554;42.132;24.786;2022-08-01T03:32:40;98993.75;;;22.44;100.00
7026;BME280;3554;42.132;24.786;2022-08-01T03:35:08;99001.19;;;22.50;100.00
7026;BME280;3554;42.132;24.786;2022-08-01T03:37:41;98995.81;;;22.59;100.00
7026;BME280;3554;42.132;24.786;2022-08-01T03:40:14;98993.44;;;22.66;100.00
7026;BME280;3554;42.132;24.786;2022-08-01T03:42:45;98999.94;;;22.81;100.00
7026;BME280;3554;42.132;24.786;2022-08-01T03:45:19;98995.31;;;23.37;100.00
7026;BME280;3554;42.132;24.786;2022-08-01T03:47:49;98994.59;;;23.88;100.00
7026;BME280;3554;42.132;24.786;2022-08-01T03:50:20;99001.88;;;24.21;100.00
7026;BME280;3554;42.132;24.786;2022-08-01T03:52:48;98995.75;;;24.62;97.78
7026;BME280;3554;42.132;24.786;2022-08-01T03:55:18;99002.75;;;24.81;94.15
7026;BME280;3554;42.132;24.786;2022-08-01T03:57:48;98997.50;;;25.05;92.00
7026;BME280;3554;42.132;24.786;2022-08-01T04:00:15;98987.41;;;25.40;87.29
7026;BME280;3554;42.132;24.786;2022-08-01T04:02:45;98983.25;;;25.62;84.65
7026;BME280;3554;42.132;24.786;2022-08-01T04:05:12;99000.84;;;25.65;83.15
7026;BME280;3554;42.132;24.786;2022-08-01T04:07:39;99012.91;;;25.85;81.55
7026;BME280;3554;42.132;24.786;2022-08-01T04:10:08;99004.22;;;25.83;80.78
7026;BME280;3554;42.132;24.786;2022-08-01T04:12:36;99012.28;;;25.99;78.88
7026;BME280;3554;42.132;24.786;2022-08-01T04:15:04;99018.31;;;26.25;76.58
7026;BME280;3554;42.132;24.786;2022-08-01T04:17:31;99012.09;;;26.32;73.08
7026;BME280;3554;42.132;24.786;2022-08-01T04:19:58;99014.25;;;26.45;71.92
7026;BME280;3554;42.132;24.786;2022-08-01T04:22:26;99025.50;;;26.40;71.41
7026;BME280;3554;42.132;24.786;2022-08-01T04:24:55;99020.75;;;26.75;68.78
7026;BME280;3554;42.132;24.786;2022-08-01T04:27:28;99030.91;;;26.95;66.96
7026;BME280;3554;42.132;24.786;2022-08-01T04:29:58;99027.63;;;26.77;67.11
7026;BME280;3554;42.132;24.786;2022-08-01T04:32:27;99025.72;;;26.94;64.83
7026;BME280;3554;42.132;24.786;2022-08-01T04:34:58;99002.44;;;27.17;63.60
7026;BME280;3554;42.132;24.786;2022-08-01T04:37:27;99023.75;;;27.57;60.09
7026;BME280;3554;42.132;24.786;2022-08-01T04:39:56;99030.88;;;27.73;58.14
7026;BME280;3554;42.132;24.786;2022-08-01T04:42:24;99033.47;;;27.81;58.23
7026;BME280;3554;42.132;24.786;2022-08-01T04:44:51;99021.72;;;27.82;55.96
7026;BME280;3554;42.132;24.786;2022-08-01T04:47:20;99025.50;;;27.95;56.20
7026;BME280;3554;42.132;24.786;2022-08-01T04:49:48;99026.56;;;27.64;55.81
7026;BME280;3554;42.132;24.786;2022-08-01T04:52:15;99024.97;;;28.00;55.06
7026;BME280;3554;42.132;24.786;2022-08-01T04:54:43;99034.09;;;27.91;55.80
7026;BME280;3554;42.132;24.786;2022-08-01T04:57:12;99028.75;;;27.83;55.18
7026;BME280;3554;42.132;24.786;2022-08-01T04:59:43;99032.38;;;27.98;54.52
7026;BME280;3554;42.132;24.786;2022-08-01T05:02:14;98996.19;;;27.78;55.35
7026;BME280;3554;42.132;24.786;2022-08-01T05:04:43;99018.66;;;27.85;55.41
7026;BME280;3554;42.132;24.786;2022-08-01T05:07:10;99023.22;;;28.07;54.30
7026;BME280;3554;42.132;24.786;2022-08-01T05:09:38;99032.44;;;28.27;52.62
7026;BME280;3554;42.132;24.786;2022-08-01T05:12:07;99036.75;;;28.36;51.63
7026;BME280;3554;42.132;24.786;2022-08-01T05:14:34;99036.31;;;28.10;52.10
7026;BME280;3554;42.132;24.786;2022-08-01T05:17:03;99035.72;;;28.22;52.07
7026;BME280;3554;42.132;24.786;2022-08-01T05:19:30;99026.78;;;28.22;51.17
7026;BME280;3554;42.132;24.786;2022-08-01T05:22:00;99025.66;;;28.16;50.21
7026;BME280;3554;42.132;24.786;2022-08-01T05:24:27;99039.34;;;28.29;50.98
7026;BME280;3554;42.132;24.786;2022-08-01T05:26:54;99029.81;;;28.04;51.90
7026;BME280;3554;42.132;24.786;2022-08-01T05:29:21;99030.75;;;27.89;52.74
7026;BME280;3554;42.132;24.786;2022-08-01T05:31:49;99028.81;;;28.20;51.78
7026;BME280;3554;42.132;24.786;2022-08-01T05:34:16;99043.00;;;28.51;51.29
7026;BME280;3554;42.132;24.786;2022-08-01T05:36:44;99030.34;;;29.03;49.96
7026;BME280;3554;42.132;24.786;2022-08-01T05:39:13;99028.94;;;28.64;48.11
7026;BME280;3554;42.132;24.786;2022-08-01T05:41:40;99034.88;;;28.74;49.19
7026;BME280;3554;42.132;24.786;2022-08-01T05:44:08;99043.25;;;29.08;48.51
7026;BME280;3554;42.132;24.786;2022-08-01T05:46:35;99035.91;;;29.16;47.78
7026;BME280;3554;42.132;24.786;2022-08-01T05:49:03;99039.72;;;28.78;45.48
7026;BME280;3554;42.132;24.786;2022-08-01T05:51:31;99031.28;;;28.44;46.48
7026;BME280;3554;42.132;24.786;2022-08-01T05:53:58;99016.38;;;28.56;46.09
7026;BME280;3554;42.132;24.786;2022-08-01T05:56:27;99031.72;;;28.33;46.39
7026;BME280;3554;42.132;24.786;2022-08-01T05:58:55;99019.00;;;28.64;46.83
7026;BME280;3554;42.132;24.786;2022-08-01T06:01:22;99007.16;;;29.09;44.98
7026;BME280;3554;42.132;24.786;2022-08-01T06:03:48;99026.97;;;29.01;44.73
7026;BME280;3554;42.132;24.786;2022-08-01T06:06:15;99032.75;;;29.13;43.07
7026;BME280;3554;42.132;24.786;2022-08-01T06:08:42;99025.75;;;28.89;43.29
7026;BME280;3554;42.132;24.786;2022-08-01T06:11:09;99026.97;;;28.72;41.79
7026;BME280;3554;42.132;24.786;2022-08-01T06:13:37;99032.75;;;28.84;40.66
7026;BME280;3554;42.132;24.786;2022-08-01T06:16:04;99022.63;;;28.71;39.60
7026;BME280;3554;42.132;24.786;2022-08-01T06:18:31;99010.94;;;28.64;39.68
7026;BME280;3554;42.132;24.786;2022-08-01T06:20:58;99011.19;;;28.69;40.05
7026;BME280;3554;42.132;24.786;2022-08-01T06:23:25;99023.75;;;28.62;40.21
7026;BME280;3554;42.132;24.786;2022-08-01T06:25:52;98999.19;;;28.86;39.68
7026;BME280;3554;42.132;24.786;2022-08-01T06:28:19;99016.41;;;28.85;39.04
7026;BME280;3554;42.132;24.786;2022-08-01T06:30:48;99007.94;;;28.88;38.93
7026;BME280;3554;42.132;24.786;2022-08-01T06:33:14;99008.56;;;28.61;38.83
7026;BME280;3554;42.132;24.786;2022-08-01T06:35:41;99005.31;;;28.80;38.99
7026;BME280;3554;42.132;24.786;2022-08-01T06:38:08;98988.78;;;28.54;38.32
7026;BME280;3554;42.132;24.786;2022-08-01T06:40:35;99010.41;;;28.46;39.11
7026;BME280;3554;42.132;24.786;2022-08-01T06:43:03;99004.38;;;28.44;39.20
7026;BME280;3554;42.132;24.786;2022-08-01T06:45:30;99003.75;;;28.57;38.52
7026;BME280;3554;42.132;24.786;2022-08-01T06:47:58;99008.78;;;28.89;38.88
7026;BME280;3554;42.132;24.786;2022-08-01T06:50:25;99010.47;;;28.61;38.30
7026;BME280;3554;42.132;24.786;2022-08-01T06:52:52;99002.59;;;28.36;38.60
7026;BME280;3554;42.132;24.786;2022-08-01T06:55:19;98993.41;;;28.45;38.61
7026;BME280;3554;42.132;24.786;2022-08-01T06:57:47;98987.09;;;28.97;39.07
7026;BME280;3554;42.132;24.786;2022-08-01T07:00:15;98972.88;;;29.03;38.54
7026;BME280;3554;42.132;24.786;2022-08-01T07:02:44;98986.56;;;29.01;38.31
7026;BME280;3554;42.132;24.786;2022-08-01T07:05:12;98993.59;;;29.02;39.34
7026;BME280;3554;42.132;24.786;2022-08-01T07:07:39;99000.41;;;28.84;38.05
7026;BME280;3554;42.132;24.786;2022-08-01T07:10:07;98976.72;;;28.79;38.74
7026;BME280;3554;42.132;24.786;2022-08-01T07:12:35;98993.25;;;28.91;39.00
7026;BME280;3554;42.132;24.786;2022-08-01T07:15:04;98992.75;;;29.02;38.74
7026;BME280;3554;42.132;24.786;2022-08-01T07:17:31;98987.19;;;29.03;38.77
7026;BME280;3554;42.132;24.786;2022-08-01T07:19:58;98994.44;;;29.03;38.33
7026;BME280;3554;42.132;24.786;2022-08-01T07:22:26;98983.00;;;29.01;38.10
7026;BME280;3554;42.132;24.786;2022-08-01T07:24:52;98979.84;;;28.97;38.39
7026;BME280;3554;42.132;24.786;2022-08-01T07:27:19;98971.75;;;28.97;38.57
7026;BME280;3554;42.132;24.786;2022-08-01T07:29:46;98970.53;;;29.00;38.36
7026;BME280;3554;42.132;24.786;2022-08-01T07:32:13;98979.53;;;28.71;38.65
7026;BME280;3554;42.132;24.786;2022-08-01T07:34:40;98978.19;;;29.11;38.24
7026;BME280;3554;42.132;24.786;2022-08-01T07:37:07;98977.63;;;29.15;38.57
7026;BME280;3554;42.132;24.786;2022-08-01T07:39:35;98974.28;;;29.13;39.20
7026;BME280;3554;42.132;24.786;2022-08-01T07:42:02;98975.00;;;29.22;38.00
7026;BME280;3554;42.132;24.786;2022-08-01T07:44:29;98968.59;;;29.08;38.12
7026;BME280;3554;42.132;24.786;2022-08-01T07:46:55;98944.81;;;29.12;38.04
7026;BME280;3554;42.132;24.786;2022-08-01T07:49:22;98951.59;;;28.93;37.86
7026;BME280;3554;42.132;24.786;2022-08-01T07:51:49;98958.50;;;28.81;38.45
7026;BME280;3554;42.132;24.786;2022-08-01T07:54:16;98964.78;;;29.17;38.42
7026;BME280;3554;42.132;24.786;2022-08-01T07:56:44;98943.81;;;29.34;38.41
7026;BME280;3554;42.132;24.786;2022-08-01T07:59:11;98945.06;;;29.17;37.57
7026;BME280;3554;42.132;24.786;2022-08-01T08:01:37;98945.97;;;29.09;37.82
7026;BME280;3554;42.132;24.786;2022-08-01T08:04:04;98939.22;;;29.13;37.85
7026;BME280;3554;42.132;24.786;2022-08-01T08:06:31;98944.19;;;29.52;38.22
7026;BME280;3554;42.132;24.786;2022-08-01T08:08:58;98942.19;;;29.39;37.42
7026;BME280;3554;42.132;24.786;2022-08-01T08:11:25;98935.78;;;29.40;37.99
7026;BME280;3554;42.132;24.786;2022-08-01T08:13:53;98918.56;;;29.20;37.47
7026;BME280;3554;42.132;24.786;2022-08-01T08:16:20;98936.59;;;29.20;37.76
7026;BME280;3554;42.132;24.786;2022-08-01T08:18:47;98946.69;;;29.32;37.66
7026;BME280;3554;42.132;24.786;2022-08-01T08:21:14;98935.50;;;29.14;37.02
7026;BME280;3554;42.132;24.786;2022-08-01T08:23:40;98935.50;;;29.35;37.37
7026;BME280;3554;42.132;24.786;2022-08-01T08:26:25;98934.31;;;29.38;37.80
7026;BME280;3554;42.132;24.786;2022-08-01T08:28:53;98901.50;;;29.34;37.17
7026;BME280;3554;42.132;24.786;2022-08-01T08:31:20;98939.75;;;29.44;37.31
7026;BME280;3554;42.132;24.786;2022-08-01T08:33:46;98953.88;;;29.46;37.45
7026;BME280;3554;42.132;24.786;2022-08-01T08:36:14;98925.19;;;29.39;37.36
7026;BME280;3554;42.132;24.786;2022-08-01T08:38:41;98930.72;;;29.73;36.80
7026;BME280;3554;42.132;24.786;2022-08-01T08:41:08;98936.81;;;29.82;36.72
7026;BME280;3554;42.132;24.786;2022-08-01T08:43:35;98927.00;;;29.74;36.63
7026;BME280;3554;42.132;24.786;2022-08-01T08:46:05;98940.59;;;29.66;37.30
7026;BME280;3554;42.132;24.786;2022-08-01T08:48:34;98938.69;;;29.60;37.14
7026;BME280;3554;42.132;24.786;2022-08-01T08:51:02;98915.22;;;29.61;37.15
7026;BME280;3554;42.132;24.786;2022-08-01T08:53:31;98915.66;;;29.22;37.56
7026;BME280;3554;42.132;24.786;2022-08-01T08:55:59;98906.47;;;29.59;37.70
7026;BME280;3554;42.132;24.786;2022-08-01T08:58:26;98919.06;;;29.51;37.43
7026;BME280;3554;42.132;24.786;2022-08-01T09:00:54;98909.00;;;29.39;37.90
7026;BME280;3554;42.132;24.786;2022-08-01T09:03:22;98922.88;;;29.57;37.60
7026;BME280;3554;42.132;24.786;2022-08-01T09:05:49;98920.22;;;29.42;38.42
7026;BME280;3554;42.132;24.786;2022-08-01T09:08:15;98908.81;;;29.40;37.86
7026;BME280;3554;42.132;24.786;2022-08-01T09:10:42;98912.41;;;29.47;38.17
7026;BME280;3554;42.132;24.786;2022-08-01T09:13:10;98913.13;;;29.56;38.42
7026;BME280;3554;42.132;24.786;2022-08-01T09:15:42;98917.88;;;29.54;38.64
7026;BME280;3554;42.132;24.786;2022-08-01T09:18:27;98915.22;;;29.61;38.11
7026;BME280;3554;42.132;24.786;2022-08-01T09:21:12;98902.44;;;29.27;38.50
7026;BME280;3554;42.132;24.786;2022-08-01T09:23:41;98907.31;;;29.59;38.70
7026;BME280;3554;42.132;24.786;2022-08-01T09:26:10;98895.69;;;29.59;38.14
7026;BME280;3554;42.132;24.786;2022-08-01T09:28:37;98909.78;;;29.54;38.31
7026;BME280;3554;42.132;24.786;2022-08-01T09:31:10;98918.56;;;29.63;38.02
7026;BME280;3554;42.132;24.786;2022-08-01T09:33:52;98893.25;;;29.42;38.40
7026;BME280;3554;42.132;24.786;2022-08-01T09:36:20;98863.25;;;29.52;38.35
7026;BME280;3554;42.132;24.786;2022-08-01T09:38:48;98897.78;;;29.57;38.19
7026;BME280;3554;42.132;24.786;2022-08-01T09:41:15;98885.81;;;29.66;38.42
7026;BME280;3554;42.132;24.786;2022-08-01T09:43:48;98900.72;;;29.83;38.62
7026;BME280;3554;42.132;24.786;2022-08-01T09:46:16;98885.63;;;29.67;38.29
7026;BME280;3554;42.132;24.786;2022-08-01T09:48:59;98888.38;;;29.74;38.49
7026;BME280;3554;42.132;24.786;2022-08-01T09:51:31;98882.63;;;29.62;38.92
7026;BME280;3554;42.132;24.786;2022-08-01T09:53:59;98891.13;;;29.59;39.18
7026;BME280;3554;42.132;24.786;2022-08-01T09:56:26;98880.13;;;29.61;38.99
7026;BME280;3554;42.132;24.786;2022-08-01T09:59:01;98894.06;;;29.64;39.62
7026;BME280;3554;42.132;24.786;2022-08-01T10:01:29;98865.50;;;29.70;39.09
7026;BME280;3554;42.132;24.786;2022-08-01T10:04:06;98829.06;;;29.59;39.04
7026;BME280;3554;42.132;24.786;2022-08-01T10:06:34;98854.19;;;29.81;39.11
7026;BME280;3554;42.132;24.786;2022-08-01T10:09:01;98879.34;;;29.88;38.99
7026;BME280;3554;42.132;24.786;2022-08-01T10:11:29;98844.38;;;29.73;39.55
7026;BME280;3554;42.132;24.786;2022-08-01T10:13:58;98863.25;;;30.01;39.21
7026;BME280;3554;42.132;24.786;2022-08-01T10:16:26;98875.03;;;29.93;38.92
7026;BME280;3554;42.132;24.786;2022-08-01T10:18:55;98877.22;;;30.11;38.31
7026;BME280;3554;42.132;24.786;2022-08-01T10:21:25;98874.88;;;30.29;39.00
7026;BME280;3554;42.132;24.786;2022-08-01T10:23:54;98876.41;;;30.38;38.49
7026;BME280;3554;42.132;24.786;2022-08-01T10:26:22;98863.19;;;30.22;38.52
7026;BME280;3554;42.132;24.786;2022-08-01T10:28:53;98884.34;;;30.18;38.38
7026;BME280;3554;42.132;24.786;2022-08-01T10:31:20;98863.66;;;30.25;38.46
7026;BME280;3554;42.132;24.786;2022-08-01T10:33:48;98860.19;;;30.38;38.51
7026;BME280;3554;42.132;24.786;2022-08-01T10:36:17;98873.78;;;30.51;38.56
7026;BME280;3554;42.132;24.786;2022-08-01T10:38:47;98865.22;;;30.47;38.46
7026;BME280;3554;42.132;24.786;2022-08-01T10:41:14;98871.84;;;30.38;38.01
7026;BME280;3554;42.132;24.786;2022-08-01T10:43:42;98878.94;;;30.18;38.60
7026;BME280;3554;42.132;24.786;2022-08-01T10:46:10;98860.16;;;30.04;39.00
7026;BME280;3554;42.132;24.786;2022-08-01T10:48:43;98868.75;;;30.48;38.99
7026;BME280;3554;42.132;24.786;2022-08-01T10:51:12;98882.75;;;30.65;38.79
7026;BME280;3554;42.132;24.786;2022-08-01T10:53:47;98837.19;;;30.55;37.74
7026;BME280;3554;42.132;24.786;2022-08-01T10:56:14;98873.13;;;31.03;37.89
7026;BME280;3554;42.132;24.786;2022-08-01T10:58:43;98871.22;;;30.84;37.47
7026;BME280;3554;42.132;24.786;2022-08-01T11:01:22;98853.03;;;30.65;37.49
7026;BME280;3554;42.132;24.786;2022-08-01T11:04:04;98848.22;;;30.60;37.43
7026;BME280;3554;42.132;24.786;2022-08-01T11:06:53;98877.59;;;30.76;38.09
7026;BME280;3554;42.132;24.786;2022-08-01T11:09:28;98876.41;;;30.85;37.52
7026;BME280;3554;42.132;24.786;2022-08-01T11:12:01;98858.28;;;30.79;37.82
7026;BME280;3554;42.132;24.786;2022-08-01T11:14:30;98843.97;;;30.85;37.60
7026;BME280;3554;42.132;24.786;2022-08-01T11:17:30;98848.19;;;31.01;38.00
7026;BME280;3554;42.132;24.786;2022-08-01T11:20:05;98860.97;;;31.39;37.50
7026;BME280;3554;42.132;24.786;2022-08-01T11:26:21;98861.19;;;31.58;35.95
7026;BME280;3554;42.132;24.786;2022-08-01T11:29:17;98869.28;;;31.44;36.36
7026;BME280;3554;42.132;24.786;2022-08-01T11:31:44;98849.91;;;31.47;36.14
7026;BME280;3554;42.132;24.786;2022-08-01T11:34:11;98860.75;;;31.61;36.22
7026;BME280;3554;42.132;24.786;2022-08-01T11:36:38;98861.16;;;31.51;36.19
7026;BME280;3554;42.132;24.786;2022-08-01T11:39:16;98854.09;;;31.83;36.54
7026;BME280;3554;42.132;24.786;2022-08-01T11:41:45;98856.56;;;31.78;35.56
7026;BME280;3554;42.132;24.786;2022-08-01T11:44:16;98851.19;;;31.84;35.57
7026;BME280;3554;42.132;24.786;2022-08-01T11:46:54;98839.75;;;31.76;35.96
7026;BME280;3554;42.132;24.786;2022-08-01T11:49:27;98856.59;;;31.65;36.27
7026;BME280;3554;42.132;24.786;2022-08-01T11:51:59;98852.41;;;31.82;35.59
7026;BME280;3554;42.132;24.786;2022-08-01T11:54:31;98841.59;;;31.88;35.29
7026;BME280;3554;42.132;24.786;2022-08-01T11:57:03;98848.69;;;32.02;35.58
7026;BME280;3554;42.132;24.786;2022-08-01T11:59:36;98837.22;;;32.00;35.19
7026;BME280;3554;42.132;24.786;2022-08-01T12:02:03;98845.78;;;31.91;34.92
7026;BME280;3554;42.132;24.786;2022-08-01T12:04:44;98848.69;;;31.83;34.66
7026;BME280;3554;42.132;24.786;2022-08-01T12:07:12;98838.03;;;32.07;35.16
7026;BME280;3554;42.132;24.786;2022-08-01T12:09:39;98833.81;;;32.24;34.63
7026;BME280;3554;42.132;24.786;2022-08-01T12:12:08;98832.78;;;32.25;34.33
7026;BME280;3554;42.132;24.786;2022-08-01T12:14:35;98832.16;;;32.23;33.98
7026;BME280;3554;42.132;24.786;2022-08-01T12:17:04;98829.94;;;31.94;34.17
7026;BME280;3554;42.132;24.786;2022-08-01T12:19:30;98816.38;;;32.07;33.94
7026;BME280;3554;42.132;24.786;2022-08-01T12:22:08;98830.09;;;32.25;34.15
7026;BME280;3554;42.132;24.786;2022-08-01T12:24:36;98838.66;;;32.16;34.08
7026;BME280;3554;42.132;24.786;2022-08-01T12:27:04;98769.94;;;31.84;34.53
7026;BME280;3554;42.132;24.786;2022-08-01T12:29:37;98837.63;;;31.84;34.26
7026;BME280;3554;42.132;24.786;2022-08-01T12:32:20;98810.97;;;31.88;34.50
7026;BME280;3554;42.132;24.786;2022-08-01T12:34:47;98829.53;;;31.91;35.00
7026;BME280;3554;42.132;24.786;2022-08-01T12:37:14;98816.69;;;32.37;33.88
7026;BME280;3554;42.132;24.786;2022-08-01T12:39:41;98824.19;;;32.48;33.78
7026;BME280;3554;42.132;24.786;2022-08-01T12:42:08;98823.56;;;32.39;33.72
7026;BME280;3554;42.132;24.786;2022-08-01T12:44:38;98777.13;;;32.23;33.82
7026;BME280;3554;42.132;24.786;2022-08-01T12:47:06;98816.69;;;32.50;33.50
7026;BME280;3554;42.132;24.786;2022-08-01T12:49:35;98813.81;;;32.76;33.61
7026;BME280;3554;42.132;24.786;2022-08-01T12:52:04;98771.91;;;32.34;33.38
7026;BME280;3554;42.132;24.786;2022-08-01T12:55:08;98812.09;;;32.44;34.20
7026;BME280;3554;42.132;24.786;2022-08-01T12:57:38;98804.81;;;32.44;33.89
7026;BME280;3554;42.132;24.786;2022-08-01T13:00:12;98793.97;;;32.31;33.55
7026;BME280;3554;42.132;24.786;2022-08-01T13:02:40;98807.53;;;32.31;33.70
7026;BME280;3554;42.132;24.786;2022-08-01T13:05:08;98810.78;;;32.60;33.55
7026;BME280;3554;42.132;24.786;2022-08-01T13:07:44;98803.97;;;32.44;33.97
7026;BME280;3554;42.132;24.786;2022-08-01T13:10:13;98791.53;;;32.23;33.88
7026;BME280;3554;42.132;24.786;2022-08-01T13:12:51;98801.44;;;32.56;33.96
7026;BME280;3554;42.132;24.786;2022-08-01T13:15:26;98790.00;;;32.40;33.25
7026;BME280;3554;42.132;24.786;2022-08-01T13:17:53;98800.72;;;32.67;33.63
7026;BME280;3554;42.132;24.786;2022-08-01T13:20:25;98794.72;;;32.58;34.57
7026;BME280;3554;42.132;24.786;2022-08-01T13:22:53;98774.94;;;31.94;34.04
7026;BME280;3554;42.132;24.786;2022-08-01T13:25:20;98791.44;;;31.60;34.83